POGODA: Poland

Lotnisko: Wroclaw Ii

METAR KOD: EPWR


METAR: EPWR 180300Z 12004KT CAVOK 12/10 Q1018


BLOK
Pogoda METAR
180300Z
Dzien: 18, Godzina: 03:00 UTC.
12004KT
Wiatr z kierunku 120, o predkosci 7 km/h
CAVOK
Widzialnosc pow. 10 km, brak chmur pon. 1500 m., brak CB, brak opadow, burz i innych
12/10
Temperatura: powietrze 12°C, punkt rosy 10°C . Wilgotnosc wzgledna 83 %
Q1018
Cisnienie: 1018 hPa

Pogoda na innym lotnisku

Pogoda Gdansk-Rebiechowo WEATHER Poland  
Pogoda Katowice WEATHER Poland  
Pogoda Krakow WEATHER Poland  
Pogoda Poznan WEATHER Poland  
Pogoda Rzeszow-Jasionka WEATHER Poland  
Pogoda Szczecin WEATHER Poland  
Pogoda Warszawa-Okecie WEATHER Poland  
Pogoda Wroclaw Ii WEATHER Poland  

Pogoda w inny kraju

Strona startowa

(C) by GREGOR 2007
Ogłoszenia Towarzyskie